• Join FlightAware (Why Join?)
  • Login
  • US Flag 
02:25AM EDT


 

Airport Tracker/Info


-or-


 

Live Flight TrackerFlight Track Log ✈ EJA831 ✈ 01-Sep-2013 ✈ KLSE - KORD

Flight Track Log - Related Links

Times and Time Zones

All times are in EDT time to prevent confusion due to time zone crossing. See the EJA831 flight status page for this flight to view local times or setup timezone preferences in your user account.

Time Position Orientation Groundspeed Altitude Reporting Facility
EDT Latitude Longitude Course Direction KTS MPH feet Rate Location/Type
11:33AM 43.9103 -91.2353 131° Southeast 184 212 3,200  Level Minneapolis Center
11:34AM 43.9467 -91.1511 59° Northeast 249 287 6,300 3,120 Climbing Minneapolis Center
11:35AM 43.9269 -91.0358 103° East 307 353 9,700 3,240 Climbing Minneapolis Center
11:36AM 43.8658 -90.9456 133° Southeast 309 356 13,100 2,940 Climbing Minneapolis Center
11:37AM 43.8064 -90.8611 134° Southeast 317 365 15,800 2,340 Climbing Minneapolis Center
11:38AM 43.5680 -90.6803 130° Southeast  Level Estimated
11:38AM 43.7369 -90.7592 133° Southeast 348 400 17,900  Level Minneapolis Center
11:39AM 43.5158 -90.5848 131° Southeast  Level Estimated
11:39AM 43.6675 -90.6594 134° Southeast 362 417 19,000  Level Minneapolis Center
11:40AM 43.6053 -90.5703 134° Southeast 399 459 19,000  Level Chicago Center
11:41AM 43.5281 -90.4594 134° Southeast 404 465 19,000  Level Chicago Center
11:42AM 43.4494 -90.3467 134° Southeast 408 470 19,000  Level Chicago Center
11:43AM 43.3703 -90.2358 134° Southeast 410 472 19,000  Level Chicago Center
11:44AM 43.2792 -90.1075 134° Southeast 404 465 19,000  Level Chicago Center
11:45AM 43.2000 -89.9969 134° Southeast 404 465 19,000  Level Chicago Center
11:46AM 43.1214 -89.8839 134° Southeast 410 472 19,000  Level Chicago Center
11:47AM 43.0419 -89.7722 134° Southeast 409 471 19,000 -840 Level Chicago Center
11:48AM 42.9619 -89.6631 135° Southeast 408 470 17,300 -1,860 Descending Chicago Center
11:49AM 42.8856 -89.5558 134° Southeast 399 459 15,200 -2,220 Descending Chicago Center
11:50AM 42.7983 -89.4356 135° Southeast 386 444 12,800 -2,040 Descending Chicago Center
11:52AM 42.7269 -89.3378 135° Southeast 368 423 11,100 -1,380 Descending Chicago Center
11:53AM 42.6647 -89.2536 135° Southeast 319 367 10,000 -1,140 Descending Chicago Center
11:54AM 42.6072 -89.1733 134° Southeast 299 344 8,800 -1,200 Descending Chicago Center
11:55AM 42.5536 -89.0903 131° Southeast 292 336 7,600 -900 Descending Chicago Center
11:56AM 42.5222 -88.9906 113° Southeast 287 330 7,000 -300 Descending Chicago Center
11:57AM 42.4917 -88.8872 112° Southeast 292 336 7,000  Level Chicago Center
11:58AM 42.4558 -88.7681 112° Southeast 292 336 7,000  Level Chicago Center
11:59AM 42.4247 -88.6669 113° Southeast 291 335 7,000  Level Chicago Center
12:00PM 42.3931 -88.5656 113° Southeast 293 337 7,000  Level Chicago Center
12:01PM 42.3600 -88.4639 114° Southeast 295 339 7,000  Level Chicago Center
12:02PM 42.3072 -88.3881 133° Southeast 292 336 7,000  Level Chicago Center
12:03PM 42.2536 -88.3056 131° Southeast 294 338 7,000  Level Chicago Center
12:04PM 42.1889 -88.2042 131° Southeast 296 341 7,000  Level Chicago Center
12:05PM 42.1464 -88.1094 121° Southeast 294 338 7,000  Level Chicago Center
12:06PM 42.1167 -88.0167 113° Southeast 296 341 7,000  Level Chicago TRACON
12:07PM 42.1000 -87.9167 103° East 301 346 7,000 -120 Level Chicago TRACON
12:08PM 42.1000 -87.8333 90° East 232 267 6,800 -1,140 Descending Chicago TRACON
12:09PM 42.0833 -87.7500 105° East 222 255 4,800 -1,860 Descending Chicago TRACON
12:10PM 42.0333 -87.7667 194° South 196 226 3,000 -1,380 Descending Chicago TRACON
12:11PM 42.0000 -87.8000 217° Southwest 185 213 2,100 -900 Descending Chicago TRACON
12:12PM 41.9833 -87.8500 246° West 133 153 1,200 -900 Descending Chicago TRACON
12:14PM 41.9667 -87.9000 180° South  Level FlightAware Approximate